sensor_id;sensor_type;location;lat;lon;timestamp;temperature;humidity
44121;DHT22;29783;52.504;13.478;2023-04-06T00:00:56;3.90;74.00
44121;DHT22;29783;52.504;13.478;2023-04-06T00:03:22;3.90;74.20
44121;DHT22;29783;52.504;13.478;2023-04-06T00:05:48;3.90;74.20
44121;DHT22;29783;52.504;13.478;2023-04-06T00:08:14;3.80;74.10
44121;DHT22;29783;52.504;13.478;2023-04-06T00:10:40;3.80;74.30
44121;DHT22;29783;52.504;13.478;2023-04-06T00:13:06;3.80;74.30
44121;DHT22;29783;52.504;13.478;2023-04-06T00:15:33;3.80;74.30
44121;DHT22;29783;52.504;13.478;2023-04-06T00:17:59;3.80;74.40
44121;DHT22;29783;52.504;13.478;2023-04-06T00:20:25;3.80;74.50
44121;DHT22;29783;52.504;13.478;2023-04-06T00:22:51;3.80;74.60
44121;DHT22;29783;52.504;13.478;2023-04-06T00:25:17;3.80;74.70
44121;DHT22;29783;52.504;13.478;2023-04-06T00:27:42;3.80;74.80
44121;DHT22;29783;52.504;13.478;2023-04-06T00:30:09;3.70;74.90
44121;DHT22;29783;52.504;13.478;2023-04-06T00:32:35;3.70;75.10
44121;DHT22;29783;52.504;13.478;2023-04-06T00:35:05;3.70;75.30
44121;DHT22;29783;52.504;13.478;2023-04-06T00:37:31;3.70;75.50
44121;DHT22;29783;52.504;13.478;2023-04-06T00:39:57;3.70;75.50
44121;DHT22;29783;52.504;13.478;2023-04-06T00:42:23;3.70;75.60
44121;DHT22;29783;52.504;13.478;2023-04-06T00:44:56;3.60;75.70
44121;DHT22;29783;52.504;13.478;2023-04-06T00:47:23;3.60;75.50
44121;DHT22;29783;52.504;13.478;2023-04-06T00:49:51;3.60;75.50
44121;DHT22;29783;52.504;13.478;2023-04-06T00:52:17;3.60;75.30
44121;DHT22;29783;52.504;13.478;2023-04-06T00:54:43;3.60;75.60
44121;DHT22;29783;52.504;13.478;2023-04-06T00:57:13;3.60;75.50
44121;DHT22;29783;52.504;13.478;2023-04-06T00:59:39;3.60;75.80
44121;DHT22;29783;52.504;13.478;2023-04-06T01:02:06;3.60;76.10
44121;DHT22;29783;52.504;13.478;2023-04-06T01:04:32;3.60;76.00
44121;DHT22;29783;52.504;13.478;2023-04-06T01:06:58;3.60;76.10
44121;DHT22;29783;52.504;13.478;2023-04-06T01:09:24;3.60;76.10
44121;DHT22;29783;52.504;13.478;2023-04-06T01:11:50;3.60;76.10
44121;DHT22;29783;52.504;13.478;2023-04-06T01:14:15;3.60;76.20
44121;DHT22;29783;52.504;13.478;2023-04-06T01:16:42;3.50;76.20
44121;DHT22;29783;52.504;13.478;2023-04-06T01:19:11;3.50;76.40
44121;DHT22;29783;52.504;13.478;2023-04-06T01:21:38;3.50;76.40
44121;DHT22;29783;52.504;13.478;2023-04-06T01:24:04;3.50;76.50
44121;DHT22;29783;52.504;13.478;2023-04-06T01:26:31;3.50;76.50
44121;DHT22;29783;52.504;13.478;2023-04-06T01:28:57;3.50;76.50
44121;DHT22;29783;52.504;13.478;2023-04-06T01:31:23;3.50;76.50
44121;DHT22;29783;52.504;13.478;2023-04-06T01:33:49;3.50;76.50
44121;DHT22;29783;52.504;13.478;2023-04-06T01:36:15;3.50;76.50
44121;DHT22;29783;52.504;13.478;2023-04-06T01:38:41;3.40;76.60
44121;DHT22;29783;52.504;13.478;2023-04-06T01:41:07;3.40;76.60
44121;DHT22;29783;52.504;13.478;2023-04-06T01:43:33;3.30;77.00
44121;DHT22;29783;52.504;13.478;2023-04-06T01:46:00;3.30;77.00
44121;DHT22;29783;52.504;13.478;2023-04-06T01:48:26;3.30;77.20
44121;DHT22;29783;52.504;13.478;2023-04-06T01:50:53;3.30;77.30
44121;DHT22;29783;52.504;13.478;2023-04-06T01:53:19;3.30;77.20
44121;DHT22;29783;52.504;13.478;2023-04-06T01:55:45;3.30;77.20
44121;DHT22;29783;52.504;13.478;2023-04-06T01:58:11;3.30;77.10
44121;DHT22;29783;52.504;13.478;2023-04-06T02:00:37;3.30;76.80
44121;DHT22;29783;52.504;13.478;2023-04-06T02:03:02;3.30;76.90
44121;DHT22;29783;52.504;13.478;2023-04-06T02:05:30;3.30;76.90
44121;DHT22;29783;52.504;13.478;2023-04-06T02:07:57;3.30;77.10
44121;DHT22;29783;52.504;13.478;2023-04-06T02:10:23;3.20;77.00
44121;DHT22;29783;52.504;13.478;2023-04-06T02:12:49;3.10;77.00
44121;DHT22;29783;52.504;13.478;2023-04-06T02:15:15;3.10;77.00
44121;DHT22;29783;52.504;13.478;2023-04-06T02:17:42;3.10;77.00
44121;DHT22;29783;52.504;13.478;2023-04-06T02:20:08;3.10;77.10
44121;DHT22;29783;52.504;13.478;2023-04-06T02:22:37;3.10;77.00
44121;DHT22;29783;52.504;13.478;2023-04-06T02:25:03;3.00;77.10
44121;DHT22;29783;52.504;13.478;2023-04-06T02:27:29;2.90;77.40
44121;DHT22;29783;52.504;13.478;2023-04-06T02:29:54;2.90;77.40
44121;DHT22;29783;52.504;13.478;2023-04-06T02:32:20;2.80;77.70
44121;DHT22;29783;52.504;13.478;2023-04-06T02:34:46;2.80;77.90
44121;DHT22;29783;52.504;13.478;2023-04-06T02:37:11;2.80;78.00
44121;DHT22;29783;52.504;13.478;2023-04-06T02:39:37;2.70;78.20
44121;DHT22;29783;52.504;13.478;2023-04-06T02:42:03;2.70;78.50
44121;DHT22;29783;52.504;13.478;2023-04-06T02:44:29;2.70;78.40
44121;DHT22;29783;52.504;13.478;2023-04-06T02:46:55;2.70;78.60
44121;DHT22;29783;52.504;13.478;2023-04-06T02:49:20;2.70;78.60
44121;DHT22;29783;52.504;13.478;2023-04-06T02:51:46;2.70;78.50
44121;DHT22;29783;52.504;13.478;2023-04-06T02:54:12;2.60;78.70
44121;DHT22;29783;52.504;13.478;2023-04-06T02:56:38;2.40;78.90
44121;DHT22;29783;52.504;13.478;2023-04-06T02:59:04;2.30;79.50
44121;DHT22;29783;52.504;13.478;2023-04-06T03:01:29;2.30;79.60
44121;DHT22;29783;52.504;13.478;2023-04-06T03:03:55;2.30;79.80
44121;DHT22;29783;52.504;13.478;2023-04-06T03:06:21;2.20;80.20
44121;DHT22;29783;52.504;13.478;2023-04-06T03:08:47;2.10;80.20
44121;DHT22;29783;52.504;13.478;2023-04-06T03:11:13;2.00;80.50
44121;DHT22;29783;52.504;13.478;2023-04-06T03:13:38;1.90;80.80
44121;DHT22;29783;52.504;13.478;2023-04-06T03:16:05;1.80;81.10
44121;DHT22;29783;52.504;13.478;2023-04-06T03:18:31;1.70;81.70
44121;DHT22;29783;52.504;13.478;2023-04-06T03:20:57;1.60;82.10
44121;DHT22;29783;52.504;13.478;2023-04-06T03:23:22;1.50;82.40
44121;DHT22;29783;52.504;13.478;2023-04-06T03:25:48;1.50;82.70
44121;DHT22;29783;52.504;13.478;2023-04-06T03:28:15;1.50;83.10
44121;DHT22;29783;52.504;13.478;2023-04-06T03:30:41;1.40;83.50
44121;DHT22;29783;52.504;13.478;2023-04-06T03:33:07;1.30;83.80
44121;DHT22;29783;52.504;13.478;2023-04-06T03:35:33;1.30;83.90
44121;DHT22;29783;52.504;13.478;2023-04-06T03:37:58;1.20;84.10
44121;DHT22;29783;52.504;13.478;2023-04-06T03:40:25;1.20;84.40
44121;DHT22;29783;52.504;13.478;2023-04-06T03:42:51;1.10;84.70
44121;DHT22;29783;52.504;13.478;2023-04-06T03:45:16;1.00;85.00
44121;DHT22;29783;52.504;13.478;2023-04-06T03:47:42;1.00;85.30
44121;DHT22;29783;52.504;13.478;2023-04-06T03:50:08;1.00;85.40
44121;DHT22;29783;52.504;13.478;2023-04-06T03:52:35;1.00;85.60
44121;DHT22;29783;52.504;13.478;2023-04-06T03:55:01;0.90;85.80
44121;DHT22;29783;52.504;13.478;2023-04-06T03:57:27;0.90;85.90
44121;DHT22;29783;52.504;13.478;2023-04-06T03:59:53;0.80;86.20
44121;DHT22;29783;52.504;13.478;2023-04-06T04:02:19;0.80;86.50
44121;DHT22;29783;52.504;13.478;2023-04-06T04:04:45;0.80;86.60
44121;DHT22;29783;52.504;13.478;2023-04-06T04:07:10;0.80;86.90
44121;DHT22;29783;52.504;13.478;2023-04-06T04:09:37;0.80;87.10
44121;DHT22;29783;52.504;13.478;2023-04-06T04:12:02;0.80;87.30
44121;DHT22;29783;52.504;13.478;2023-04-06T04:14:28;0.80;87.40
44121;DHT22;29783;52.504;13.478;2023-04-06T04:16:54;0.70;87.60
44121;DHT22;29783;52.504;13.478;2023-04-06T04:19:20;0.70;87.80
44121;DHT22;29783;52.504;13.478;2023-04-06T04:21:46;0.60;88.00
44121;DHT22;29783;52.504;13.478;2023-04-06T04:24:12;0.50;88.40
44121;DHT22;29783;52.504;13.478;2023-04-06T04:26:39;0.50;88.70
44121;DHT22;29783;52.504;13.478;2023-04-06T04:29:05;0.50;89.00
44121;DHT22;29783;52.504;13.478;2023-04-06T04:31:31;0.50;89.20
44121;DHT22;29783;52.504;13.478;2023-04-06T04:33:59;0.40;89.40
44121;DHT22;29783;52.504;13.478;2023-04-06T04:36:24;0.40;89.50
44121;DHT22;29783;52.504;13.478;2023-04-06T04:38:52;0.40;89.70
44121;DHT22;29783;52.504;13.478;2023-04-06T04:41:18;0.40;89.90
44121;DHT22;29783;52.504;13.478;2023-04-06T04:43:44;0.40;90.00
44121;DHT22;29783;52.504;13.478;2023-04-06T04:46:10;0.40;90.30
44121;DHT22;29783;52.504;13.478;2023-04-06T04:48:36;0.40;90.40
44121;DHT22;29783;52.504;13.478;2023-04-06T04:51:03;0.40;90.50
44121;DHT22;29783;52.504;13.478;2023-04-06T04:53:29;0.40;90.60
44121;DHT22;29783;52.504;13.478;2023-04-06T04:55:55;0.40;90.60
44121;DHT22;29783;52.504;13.478;2023-04-06T04:58:20;0.50;90.70
44121;DHT22;29783;52.504;13.478;2023-04-06T05:00:46;0.50;90.70
44121;DHT22;29783;52.504;13.478;2023-04-06T05:03:25;0.50;90.70
44121;DHT22;29783;52.504;13.478;2023-04-06T05:05:51;0.50;90.70
44121;DHT22;29783;52.504;13.478;2023-04-06T05:08:17;0.50;90.80
44121;DHT22;29783;52.504;13.478;2023-04-06T05:10:43;0.50;90.70
44121;DHT22;29783;52.504;13.478;2023-04-06T05:13:13;0.60;90.80
44121;DHT22;29783;52.504;13.478;2023-04-06T05:15:40;0.60;90.70
44121;DHT22;29783;52.504;13.478;2023-04-06T05:18:09;0.70;90.60
44121;DHT22;29783;52.504;13.478;2023-04-06T05:20:37;0.70;90.50
44121;DHT22;29783;52.504;13.478;2023-04-06T05:23:03;0.80;90.40
44121;DHT22;29783;52.504;13.478;2023-04-06T05:25:30;0.80;90.30
44121;DHT22;29783;52.504;13.478;2023-04-06T05:27:56;0.90;90.30
44121;DHT22;29783;52.504;13.478;2023-04-06T05:30:22;1.00;90.10
44121;DHT22;29783;52.504;13.478;2023-04-06T05:32:47;1.00;89.90
44121;DHT22;29783;52.504;13.478;2023-04-06T05:35:13;1.10;89.80
44121;DHT22;29783;52.504;13.478;2023-04-06T05:37:40;1.20;89.70
44121;DHT22;29783;52.504;13.478;2023-04-06T05:40:06;1.20;89.40
44121;DHT22;29783;52.504;13.478;2023-04-06T05:42:37;1.30;89.20
44121;DHT22;29783;52.504;13.478;2023-04-06T05:45:07;1.30;89.00
44121;DHT22;29783;52.504;13.478;2023-04-06T05:47:32;1.40;88.70
44121;DHT22;29783;52.504;13.478;2023-04-06T05:49:58;1.50;88.30
44121;DHT22;29783;52.504;13.478;2023-04-06T05:52:24;1.50;88.10
44121;DHT22;29783;52.504;13.478;2023-04-06T05:54:50;1.60;87.80
44121;DHT22;29783;52.504;13.478;2023-04-06T05:57:16;1.80;87.60
44121;DHT22;29783;52.504;13.478;2023-04-06T05:59:44;1.80;87.10
44121;DHT22;29783;52.504;13.478;2023-04-06T06:02:10;1.90;86.70
44121;DHT22;29783;52.504;13.478;2023-04-06T06:04:36;2.00;86.20
44121;DHT22;29783;52.504;13.478;2023-04-06T06:07:02;2.00;85.70
44121;DHT22;29783;52.504;13.478;2023-04-06T06:09:27;2.10;85.40
44121;DHT22;29783;52.504;13.478;2023-04-06T06:14:58;2.20;84.80
44121;DHT22;29783;52.504;13.478;2023-04-06T06:17:34;2.30;84.70
44121;DHT22;29783;52.504;13.478;2023-04-06T06:20:00;2.30;84.60
44121;DHT22;29783;52.504;13.478;2023-04-06T06:22:26;2.60;83.10
44121;DHT22;29783;52.504;13.478;2023-04-06T06:24:53;2.70;81.60
44121;DHT22;29783;52.504;13.478;2023-04-06T06:27:19;2.80;80.50
44121;DHT22;29783;52.504;13.478;2023-04-06T06:29:45;2.80;80.40
44121;DHT22;29783;52.504;13.478;2023-04-06T06:32:10;2.90;80.20
44121;DHT22;29783;52.504;13.478;2023-04-06T06:34:36;3.00;80.20
44121;DHT22;29783;52.504;13.478;2023-04-06T06:37:02;3.20;79.50
44121;DHT22;29783;52.504;13.478;2023-04-06T06:39:29;3.30;78.90
44121;DHT22;29783;52.504;13.478;2023-04-06T06:42:06;3.30;78.30
44121;DHT22;29783;52.504;13.478;2023-04-06T06:44:41;3.40;78.10
44121;DHT22;29783;52.504;13.478;2023-04-06T06:47:07;3.50;77.60
44121;DHT22;29783;52.504;13.478;2023-04-06T06:49:33;3.70;77.40
44121;DHT22;29783;52.504;13.478;2023-04-06T06:51:59;3.80;76.80
44121;DHT22;29783;52.504;13.478;2023-04-06T06:54:25;3.90;75.50
44121;DHT22;29783;52.504;13.478;2023-04-06T06:56:50;4.00;74.70
44121;DHT22;29783;52.504;13.478;2023-04-06T06:59:17;4.20;74.40
44121;DHT22;29783;52.504;13.478;2023-04-06T07:04:14;4.40;73.90
44121;DHT22;29783;52.504;13.478;2023-04-06T07:06:41;4.60;73.00
44121;DHT22;29783;52.504;13.478;2023-04-06T07:09:07;4.70;70.70
44121;DHT22;29783;52.504;13.478;2023-04-06T07:11:32;4.80;69.80
44121;DHT22;29783;52.504;13.478;2023-04-06T07:13:58;4.80;68.10
44121;DHT22;29783;52.504;13.478;2023-04-06T07:16:24;4.90;67.90
44121;DHT22;29783;52.504;13.478;2023-04-06T07:18:50;5.00;66.70
44121;DHT22;29783;52.504;13.478;2023-04-06T07:21:16;5.20;66.10
44121;DHT22;29783;52.504;13.478;2023-04-06T07:23:42;5.30;65.80
44121;DHT22;29783;52.504;13.478;2023-04-06T07:26:09;5.30;65.20
44121;DHT22;29783;52.504;13.478;2023-04-06T07:28:35;5.40;65.00
44121;DHT22;29783;52.504;13.478;2023-04-06T07:31:00;5.40;64.90
44121;DHT22;29783;52.504;13.478;2023-04-06T07:33:26;5.50;65.10
44121;DHT22;29783;52.504;13.478;2023-04-06T07:35:55;5.70;63.80
44121;DHT22;29783;52.504;13.478;2023-04-06T07:38:22;5.80;62.90
44121;DHT22;29783;52.504;13.478;2023-04-06T07:40:47;5.90;62.70
44121;DHT22;29783;52.504;13.478;2023-04-06T07:43:13;6.00;62.70
44121;DHT22;29783;52.504;13.478;2023-04-06T07:45:39;6.00;62.20
44121;DHT22;29783;52.504;13.478;2023-04-06T07:48:05;6.10;61.90
44121;DHT22;29783;52.504;13.478;2023-04-06T07:50:32;6.20;61.10
44121;DHT22;29783;52.504;13.478;2023-04-06T07:52:57;6.40;60.30
44121;DHT22;29783;52.504;13.478;2023-04-06T07:55:23;6.50;59.40
44121;DHT22;29783;52.504;13.478;2023-04-06T07:57:49;6.70;59.70
44121;DHT22;29783;52.504;13.478;2023-04-06T08:00:16;6.70;58.00
44121;DHT22;29783;52.504;13.478;2023-04-06T08:02:42;6.80;58.50
44121;DHT22;29783;52.504;13.478;2023-04-06T08:05:08;6.80;57.50
44121;DHT22;29783;52.504;13.478;2023-04-06T08:07:34;6.80;57.00
44121;DHT22;29783;52.504;13.478;2023-04-06T08:10:01;6.80;56.60
44121;DHT22;29783;52.504;13.478;2023-04-06T08:12:26;7.00;55.60
44121;DHT22;29783;52.504;13.478;2023-04-06T08:14:52;7.20;55.90
44121;DHT22;29783;52.504;13.478;2023-04-06T08:17:18;7.50;55.30
44121;DHT22;29783;52.504;13.478;2023-04-06T08:19:44;7.60;54.20
44121;DHT22;29783;52.504;13.478;2023-04-06T08:22:11;7.80;53.30
44121;DHT22;29783;52.504;13.478;2023-04-06T08:24:37;7.90;53.30
44121;DHT22;29783;52.504;13.478;2023-04-06T08:27:02;8.10;52.00
44121;DHT22;29783;52.504;13.478;2023-04-06T08:29:28;8.20;51.50
44121;DHT22;29783;52.504;13.478;2023-04-06T08:31:54;8.30;50.80
44121;DHT22;29783;52.504;13.478;2023-04-06T08:34:20;8.30;50.10
44121;DHT22;29783;52.504;13.478;2023-04-06T08:36:46;8.20;48.60
44121;DHT22;29783;52.504;13.478;2023-04-06T08:39:12;8.00;49.10
44121;DHT22;29783;52.504;13.478;2023-04-06T08:41:41;8.10;49.00
44121;DHT22;29783;52.504;13.478;2023-04-06T08:44:07;8.20;48.40
44121;DHT22;29783;52.504;13.478;2023-04-06T08:46:33;8.30;48.90
44121;DHT22;29783;52.504;13.478;2023-04-06T08:49:02;8.60;49.20
44121;DHT22;29783;52.504;13.478;2023-04-06T08:51:29;8.60;48.00
44121;DHT22;29783;52.504;13.478;2023-04-06T08:53:59;8.70;46.50
44121;DHT22;29783;52.504;13.478;2023-04-06T08:56:26;8.80;45.40
44121;DHT22;29783;52.504;13.478;2023-04-06T08:58:53;8.80;46.10
44121;DHT22;29783;52.504;13.478;2023-04-06T09:01:25;8.90;45.90
44121;DHT22;29783;52.504;13.478;2023-04-06T09:03:53;8.90;46.40
44121;DHT22;29783;52.504;13.478;2023-04-06T09:06:21;8.80;45.40
44121;DHT22;29783;52.504;13.478;2023-04-06T09:08:47;8.90;46.40
44121;DHT22;29783;52.504;13.478;2023-04-06T09:11:14;8.80;45.90
44121;DHT22;29783;52.504;13.478;2023-04-06T09:13:51;8.80;45.30
44121;DHT22;29783;52.504;13.478;2023-04-06T09:16:17;9.00;45.60
44121;DHT22;29783;52.504;13.478;2023-04-06T09:18:44;9.30;45.60
44121;DHT22;29783;52.504;13.478;2023-04-06T09:21:10;9.50;45.60
44121;DHT22;29783;52.504;13.478;2023-04-06T09:23:36;9.10;44.90
44121;DHT22;29783;52.504;13.478;2023-04-06T09:26:09;9.30;45.60
44121;DHT22;29783;52.504;13.478;2023-04-06T09:28:47;9.20;46.60
44121;DHT22;29783;52.504;13.478;2023-04-06T09:31:15;9.30;44.20
44121;DHT22;29783;52.504;13.478;2023-04-06T09:33:43;9.40;43.90
44121;DHT22;29783;52.504;13.478;2023-04-06T09:36:09;9.30;44.30
44121;DHT22;29783;52.504;13.478;2023-04-06T09:38:37;9.40;44.00
44121;DHT22;29783;52.504;13.478;2023-04-06T09:41:03;9.70;44.40
44121;DHT22;29783;52.504;13.478;2023-04-06T09:43:30;10.00;42.80
44121;DHT22;29783;52.504;13.478;2023-04-06T09:45:56;10.30;41.30
44121;DHT22;29783;52.504;13.478;2023-04-06T09:48:24;10.40;41.00
44121;DHT22;29783;52.504;13.478;2023-04-06T09:50:53;10.40;40.80
44121;DHT22;29783;52.504;13.478;2023-04-06T09:53:21;10.20;41.50
44121;DHT22;29783;52.504;13.478;2023-04-06T09:55:51;10.00;41.00
44121;DHT22;29783;52.504;13.478;2023-04-06T09:58:19;9.80;42.30
44121;DHT22;29783;52.504;13.478;2023-04-06T10:12:15;10.10;42.20
44121;DHT22;29783;52.504;13.478;2023-04-06T10:14:43;10.70;41.30
44121;DHT22;29783;52.504;13.478;2023-04-06T10:17:09;10.90;38.90
44121;DHT22;29783;52.504;13.478;2023-04-06T10:20:03;11.10;38.30
44121;DHT22;29783;52.504;13.478;2023-04-06T10:23:08;11.40;36.80
44121;DHT22;29783;52.504;13.478;2023-04-06T10:25:55;11.10;35.90
44121;DHT22;29783;52.504;13.478;2023-04-06T10:28:21;10.50;36.80
44121;DHT22;29783;52.504;13.478;2023-04-06T10:30:47;10.20;36.50
44121;DHT22;29783;52.504;13.478;2023-04-06T10:33:17;10.10;37.10
44121;DHT22;29783;52.504;13.478;2023-04-06T10:35:43;10.30;37.50
44121;DHT22;29783;52.504;13.478;2023-04-06T10:38:09;10.50;37.90
44121;DHT22;29783;52.504;13.478;2023-04-06T10:40:39;10.80;38.00
44121;DHT22;29783;52.504;13.478;2023-04-06T10:43:10;11.30;36.00
44121;DHT22;29783;52.504;13.478;2023-04-06T10:45:38;11.70;35.40
44121;DHT22;29783;52.504;13.478;2023-04-06T10:48:17;11.60;35.50
44121;DHT22;29783;52.504;13.478;2023-04-06T10:50:51;11.80;35.40
44121;DHT22;29783;52.504;13.478;2023-04-06T10:53:24;11.60;34.20
44121;DHT22;29783;52.504;13.478;2023-04-06T10:55:51;11.70;35.10
44121;DHT22;29783;52.504;13.478;2023-04-06T10:58:17;11.60;35.50
44121;DHT22;29783;52.504;13.478;2023-04-06T11:05:54;10.30;38.40
44121;DHT22;29783;52.504;13.478;2023-04-06T11:08:30;10.40;37.90
44121;DHT22;29783;52.504;13.478;2023-04-06T11:11:12;10.70;37.20
44121;DHT22;29783;52.504;13.478;2023-04-06T11:13:41;11.00;36.90
44121;DHT22;29783;52.504;13.478;2023-04-06T11:16:13;10.80;37.30
44121;DHT22;29783;52.504;13.478;2023-04-06T11:18:56;11.10;37.50
44121;DHT22;29783;52.504;13.478;2023-04-06T11:21:37;11.50;36.50
44121;DHT22;29783;52.504;13.478;2023-04-06T11:24:24;11.50;35.60
44121;DHT22;29783;52.504;13.478;2023-04-06T11:29:19;11.30;35.80
44121;DHT22;29783;52.504;13.478;2023-04-06T11:31:51;11.70;35.60
44121;DHT22;29783;52.504;13.478;2023-04-06T11:34:21;11.30;35.50
44121;DHT22;29783;52.504;13.478;2023-04-06T11:36:58;11.50;34.50
44121;DHT22;29783;52.504;13.478;2023-04-06T11:39:26;11.70;33.70
44121;DHT22;29783;52.504;13.478;2023-04-06T11:41:54;12.00;33.60
44121;DHT22;29783;52.504;13.478;2023-04-06T11:47:04;12.00;35.10
44121;DHT22;29783;52.504;13.478;2023-04-06T11:49:31;11.90;35.80
44121;DHT22;29783;52.504;13.478;2023-04-06T11:51:58;12.30;35.60
44121;DHT22;29783;52.504;13.478;2023-04-06T11:56:56;12.20;35.10
44121;DHT22;29783;52.504;13.478;2023-04-06T11:59:21;12.30;35.00
44121;DHT22;29783;52.504;13.478;2023-04-06T13:20:18;22.00;23.20
44121;DHT22;29783;52.504;13.478;2023-04-06T13:22:45;22.00;22.70
44121;DHT22;29783;52.504;13.478;2023-04-06T13:25:11;22.30;22.50
44121;DHT22;29783;52.504;13.478;2023-04-06T13:27:37;23.20;21.10
44121;DHT22;29783;52.504;13.478;2023-04-06T13:30:03;23.30;21.00
44121;DHT22;29783;52.504;13.478;2023-04-06T13:32:30;22.30;21.40
44121;DHT22;29783;52.504;13.478;2023-04-06T13:34:56;22.30;22.30
44121;DHT22;29783;52.504;13.478;2023-04-06T13:37:22;22.00;22.50
44121;DHT22;29783;52.504;13.478;2023-04-06T13:39:47;22.30;22.60
44121;DHT22;29783;52.504;13.478;2023-04-06T13:42:13;21.70;22.70
44121;DHT22;29783;52.504;13.478;2023-04-06T13:44:39;22.00;22.60
44121;DHT22;29783;52.504;13.478;2023-04-06T13:47:04;21.70;22.50
44121;DHT22;29783;52.504;13.478;2023-04-06T13:49:31;19.40;24.50
44121;DHT22;29783;52.504;13.478;2023-04-06T13:51:57;19.20;25.10
44121;DHT22;29783;52.504;13.478;2023-04-06T13:54:26;19.60;24.80
44121;DHT22;29783;52.504;13.478;2023-04-06T13:56:51;20.50;23.90
44121;DHT22;29783;52.504;13.478;2023-04-06T13:59:17;20.50;23.40
44121;DHT22;29783;52.504;13.478;2023-04-06T14:49:10;19.80;24.10
44121;DHT22;29783;52.504;13.478;2023-04-06T14:51:39;20.30;23.50
44121;DHT22;29783;52.504;13.478;2023-04-06T14:54:05;20.70;23.00
44121;DHT22;29783;52.504;13.478;2023-04-06T14:56:31;19.70;24.00
44121;DHT22;29783;52.504;13.478;2023-04-06T14:58:58;19.90;23.80
44121;DHT22;29783;52.504;13.478;2023-04-06T16:08:15;20.20;23.40
44121;DHT22;29783;52.504;13.478;2023-04-06T16:10:41;20.10;23.40
44121;DHT22;29783;52.504;13.478;2023-04-06T16:13:07;20.30;23.70
44121;DHT22;29783;52.504;13.478;2023-04-06T16:15:33;20.70;22.90
44121;DHT22;29783;52.504;13.478;2023-04-06T16:17:59;20.20;23.50
44121;DHT22;29783;52.504;13.478;2023-04-06T16:20:25;19.90;23.50
44121;DHT22;29783;52.504;13.478;2023-04-06T16:22:51;18.60;24.60
44121;DHT22;29783;52.504;13.478;2023-04-06T16:25:17;18.30;25.40
44121;DHT22;29783;52.504;13.478;2023-04-06T16:27:43;17.70;26.10
44121;DHT22;29783;52.504;13.478;2023-04-06T16:30:09;17.50;26.10
44121;DHT22;29783;52.504;13.478;2023-04-06T16:32:35;17.10;27.00
44121;DHT22;29783;52.504;13.478;2023-04-06T16:35:02;16.50;27.40
44121;DHT22;29783;52.504;13.478;2023-04-06T16:37:27;16.70;27.80
44121;DHT22;29783;52.504;13.478;2023-04-06T16:39:54;17.50;27.00
44121;DHT22;29783;52.504;13.478;2023-04-06T16:42:20;18.40;25.80
44121;DHT22;29783;52.504;13.478;2023-04-06T16:44:46;18.20;26.10
44121;DHT22;29783;52.504;13.478;2023-04-06T16:47:13;18.30;26.50
44121;DHT22;29783;52.504;13.478;2023-04-06T16:49:40;18.20;25.70
44121;DHT22;29783;52.504;13.478;2023-04-06T16:52:05;18.40;25.90
44121;DHT22;29783;52.504;13.478;2023-04-06T16:54:31;17.70;27.00
44121;DHT22;29783;52.504;13.478;2023-04-06T16:56:59;17.30;26.90
44121;DHT22;29783;52.504;13.478;2023-04-06T16:59:26;16.70;27.80
44121;DHT22;29783;52.504;13.478;2023-04-06T17:01:52;16.80;27.90
44121;DHT22;29783;52.504;13.478;2023-04-06T17:04:18;16.40;28.40
44121;DHT22;29783;52.504;13.478;2023-04-06T17:06:44;15.70;29.40
44121;DHT22;29783;52.504;13.478;2023-04-06T17:09:10;14.40;31.10
44121;DHT22;29783;52.504;13.478;2023-04-06T17:11:35;13.60;32.70
44121;DHT22;29783;52.504;13.478;2023-04-06T17:14:01;12.80;33.80
44121;DHT22;29783;52.504;13.478;2023-04-06T17:16:29;12.50;34.60
44121;DHT22;29783;52.504;13.478;2023-04-06T17:18:56;12.10;35.60
44121;DHT22;29783;52.504;13.478;2023-04-06T17:21:21;11.70;35.90
44121;DHT22;29783;52.504;13.478;2023-04-06T17:23:47;11.50;36.00
44121;DHT22;29783;52.504;13.478;2023-04-06T17:26:13;11.20;37.10
44121;DHT22;29783;52.504;13.478;2023-04-06T17:28:38;10.90;38.10
44121;DHT22;29783;52.504;13.478;2023-04-06T17:31:08;10.80;37.80
44121;DHT22;29783;52.504;13.478;2023-04-06T17:33:39;10.60;37.90
44121;DHT22;29783;52.504;13.478;2023-04-06T17:36:06;10.40;38.30
44121;DHT22;29783;52.504;13.478;2023-04-06T17:38:34;10.30;38.80
44121;DHT22;29783;52.504;13.478;2023-04-06T17:41:00;10.00;39.40
44121;DHT22;29783;52.504;13.478;2023-04-06T17:43:29;9.90;39.90
44121;DHT22;29783;52.504;13.478;2023-04-06T17:45:55;9.70;40.30
44121;DHT22;29783;52.504;13.478;2023-04-06T17:48:20;9.60;40.90
44121;DHT22;29783;52.504;13.478;2023-04-06T17:50:46;9.40;41.10
44121;DHT22;29783;52.504;13.478;2023-04-06T17:53:12;9.30;41.00
44121;DHT22;29783;52.504;13.478;2023-04-06T17:55:37;9.20;41.50
44121;DHT22;29783;52.504;13.478;2023-04-06T17:58:04;9.00;41.90
44121;DHT22;29783;52.504;13.478;2023-04-06T18:00:29;8.90;42.10
44121;DHT22;29783;52.504;13.478;2023-04-06T18:02:56;8.70;42.90
44121;DHT22;29783;52.504;13.478;2023-04-06T18:05:23;8.60;43.40
44121;DHT22;29783;52.504;13.478;2023-04-06T18:07:49;8.50;43.50
44121;DHT22;29783;52.504;13.478;2023-04-06T18:10:17;8.40;44.00
44121;DHT22;29783;52.504;13.478;2023-04-06T18:12:43;8.30;44.30
44121;DHT22;29783;52.504;13.478;2023-04-06T18:15:08;8.20;45.50
44121;DHT22;29783;52.504;13.478;2023-04-06T18:17:35;8.10;45.60
44121;DHT22;29783;52.504;13.478;2023-04-06T18:20:01;8.00;45.80
44121;DHT22;29783;52.504;13.478;2023-04-06T18:22:27;7.90;46.70
44121;DHT22;29783;52.504;13.478;2023-04-06T18:24:53;7.80;46.40
44121;DHT22;29783;52.504;13.478;2023-04-06T18:27:19;7.70;46.90
44121;DHT22;29783;52.504;13.478;2023-04-06T18:29:46;7.60;47.00
44121;DHT22;29783;52.504;13.478;2023-04-06T18:32:13;7.50;48.40
44121;DHT22;29783;52.504;13.478;2023-04-06T18:34:39;7.40;48.70
44121;DHT22;29783;52.504;13.478;2023-04-06T18:37:05;7.30;48.90
44121;DHT22;29783;52.504;13.478;2023-04-06T18:39:31;7.30;49.30
44121;DHT22;29783;52.504;13.478;2023-04-06T18:41:57;7.20;49.50
44121;DHT22;29783;52.504;13.478;2023-04-06T18:44:23;7.10;49.90
44121;DHT22;29783;52.504;13.478;2023-04-06T18:46:48;7.00;50.10
44121;DHT22;29783;52.504;13.478;2023-04-06T18:49:14;6.90;50.50
44121;DHT22;29783;52.504;13.478;2023-04-06T18:51:40;6.80;51.00
44121;DHT22;29783;52.504;13.478;2023-04-06T18:54:07;6.80;51.10
44121;DHT22;29783;52.504;13.478;2023-04-06T18:56:33;6.70;50.80
44121;DHT22;29783;52.504;13.478;2023-04-06T18:58:58;6.70;51.50
44121;DHT22;29783;52.504;13.478;2023-04-06T19:01:26;6.70;51.60
44121;DHT22;29783;52.504;13.478;2023-04-06T19:03:53;6.60;51.60
44121;DHT22;29783;52.504;13.478;2023-04-06T19:06:20;6.50;51.90
44121;DHT22;29783;52.504;13.478;2023-04-06T19:08:46;6.50;52.40